createdAt,value
2023-04-03T00:01:46.289Z,67.91
2023-04-03T00:04:25.134Z,68.33
2023-04-03T00:06:58.053Z,67.31
2023-04-03T00:09:28.218Z,67.97
2023-04-03T00:11:57.862Z,68.02
2023-04-03T00:14:28.708Z,68.56
2023-04-03T00:16:59.079Z,68.90
2023-04-03T00:19:28.044Z,68.61
2023-04-03T00:21:58.472Z,69.39
2023-04-03T00:24:29.397Z,69.22
2023-04-03T00:27:02.660Z,68.50
2023-04-03T00:29:35.213Z,67.38
2023-04-03T00:32:07.163Z,68.90
2023-04-03T00:34:36.513Z,68.42
2023-04-03T00:37:07.481Z,68.83
2023-04-03T00:39:37.153Z,68.23
2023-04-03T00:42:05.988Z,67.48
2023-04-03T00:45:12.532Z,68.49
2023-04-03T00:47:44.743Z,68.07
2023-04-03T00:50:15.063Z,67.74
2023-04-03T00:52:47.677Z,67.01
2023-04-03T00:55:17.887Z,66.92
2023-04-03T00:57:48.437Z,67.79
2023-04-03T01:00:36.034Z,67.32
2023-04-03T01:03:08.510Z,68.32
2023-04-03T01:05:47.708Z,67.30
2023-04-03T01:08:17.549Z,68.31
2023-04-03T01:10:46.148Z,67.41
2023-04-03T01:13:24.337Z,67.35
2023-04-03T01:15:55.599Z,67.43
2023-04-03T01:18:29.314Z,67.10
2023-04-03T01:21:36.909Z,66.80
2023-04-03T01:24:19.606Z,66.98
2023-04-03T01:26:49.317Z,66.63
2023-04-03T01:29:20.626Z,67.86
2023-04-03T01:31:54.699Z,68.19
2023-04-03T01:34:32.213Z,67.60
2023-04-03T01:37:02.488Z,67.85
2023-04-03T01:39:33.414Z,67.46
2023-04-03T01:42:04.757Z,67.24
2023-04-03T01:44:33.946Z,68.48
2023-04-03T01:47:04.745Z,66.98
2023-04-03T01:49:38.253Z,67.32
2023-04-03T01:52:06.441Z,68.02
2023-04-03T01:54:34.761Z,68.70
2023-04-03T01:57:06.041Z,68.79
2023-04-03T01:59:40.588Z,69.71
2023-04-03T02:02:15.852Z,68.61
2023-04-03T02:04:44.759Z,69.40
2023-04-03T02:07:14.498Z,69.61
2023-04-03T02:09:44.625Z,69.78
2023-04-03T02:12:15.214Z,70.29
2023-04-03T02:14:43.364Z,69.06
2023-04-03T02:17:12.884Z,69.38
2023-04-03T02:19:41.204Z,69.10
2023-04-03T02:22:09.322Z,70.50
2023-04-03T02:24:40.083Z,71.10
2023-04-03T02:27:08.850Z,70.93
2023-04-03T02:29:41.723Z,70.38
2023-04-03T02:32:14.542Z,70.78
2023-04-03T02:34:44.488Z,70.89
2023-04-03T02:37:12.564Z,71.06
2023-04-03T02:39:40.974Z,71.51
2023-04-03T02:42:09.643Z,71.06
2023-04-03T02:44:38.119Z,70.38
2023-04-03T02:47:06.788Z,70.36
2023-04-03T02:49:39.855Z,70.63
2023-04-03T02:52:09.281Z,70.88
2023-04-03T02:54:37.705Z,71.13
2023-04-03T02:57:05.917Z,70.63
2023-04-03T02:59:37.081Z,71.58
2023-04-03T03:02:08.864Z,71.45
2023-04-03T03:04:38.875Z,71.92
2023-04-03T03:07:07.149Z,72.92
2023-04-03T03:09:36.722Z,72.40
2023-04-03T03:12:07.796Z,72.96
2023-04-03T03:14:36.353Z,73.27
2023-04-03T03:17:09.098Z,72.00
2023-04-03T03:19:37.420Z,71.66
2023-04-03T03:22:07.422Z,69.92
2023-04-03T03:24:44.310Z,68.50
2023-04-03T03:27:14.855Z,68.06
2023-04-03T03:29:44.639Z,68.19
2023-04-03T03:32:14.525Z,68.00
2023-04-03T03:34:46.522Z,68.61
2023-04-03T03:37:15.753Z,67.63
2023-04-03T03:39:45.802Z,68.42
2023-04-03T03:42:14.525Z,68.81
2023-04-03T03:44:45.025Z,68.41
2023-04-03T03:47:20.508Z,68.99
2023-04-03T03:49:48.707Z,69.72
2023-04-03T03:52:18.138Z,68.63
2023-04-03T03:54:49.527Z,68.53
2023-04-03T03:57:20.060Z,67.45
2023-04-03T03:59:49.678Z,67.22
2023-04-03T04:02:29.759Z,67.82
2023-04-03T04:04:59.899Z,67.00
2023-04-03T04:07:32.767Z,67.12
2023-04-03T04:10:04.742Z,66.38
2023-04-03T04:12:32.846Z,67.02
2023-04-03T04:15:03.444Z,67.28
2023-04-03T04:17:32.009Z,67.94
2023-04-03T04:20:00.230Z,67.84
2023-04-03T04:22:28.558Z,67.85
2023-04-03T04:24:58.231Z,67.91
2023-04-03T04:27:30.148Z,68.02
2023-04-03T04:29:59.890Z,68.58
2023-04-03T04:32:30.208Z,68.54
2023-04-03T04:34:58.194Z,68.71
2023-04-03T04:37:29.564Z,69.03
2023-04-03T04:39:58.671Z,69.09
2023-04-03T04:42:28.750Z,69.18
2023-04-03T04:44:57.756Z,69.36
2023-04-03T04:47:28.044Z,69.79
2023-04-03T04:49:56.299Z,69.64
2023-04-03T04:52:24.308Z,69.90
2023-04-03T04:54:52.877Z,70.04
2023-04-03T04:57:22.967Z,70.24
2023-04-03T04:59:52.974Z,70.48
2023-04-03T05:02:21.754Z,69.54
2023-04-03T05:04:51.539Z,70.12
2023-04-03T05:07:19.632Z,70.10
2023-04-03T05:09:52.957Z,70.35
2023-04-03T05:12:20.893Z,70.62
2023-04-03T05:14:52.020Z,70.90
2023-04-03T05:17:23.638Z,70.55
2023-04-03T05:19:52.055Z,69.87
2023-04-03T05:22:20.629Z,70.08
2023-04-03T05:24:49.140Z,70.17
2023-04-03T05:27:18.962Z,70.21
2023-04-03T05:29:49.438Z,70.05
2023-04-03T05:32:17.834Z,70.10
2023-04-03T05:34:51.437Z,69.71
2023-04-03T05:37:19.770Z,70.05
2023-04-03T05:39:48.096Z,70.52
2023-04-03T05:42:19.562Z,70.50
2023-04-03T05:44:48.523Z,70.92
2023-04-03T05:47:19.096Z,70.52
2023-04-03T05:49:51.776Z,70.59
2023-04-03T05:52:26.113Z,70.79
2023-04-03T05:54:55.512Z,71.28
2023-04-03T05:57:25.080Z,71.33
2023-04-03T05:59:54.970Z,71.33
2023-04-03T06:02:27.196Z,71.28
2023-04-03T06:04:55.865Z,71.10
2023-04-03T06:07:29.358Z,70.66
2023-04-03T06:10:00.122Z,71.00
2023-04-03T06:12:30.373Z,71.33
2023-04-03T06:14:58.331Z,71.61
2023-04-03T06:17:28.164Z,70.76
2023-04-03T06:20:01.428Z,70.87
2023-04-03T06:22:39.463Z,71.03
2023-04-03T06:25:10.461Z,70.88
2023-04-03T06:27:39.603Z,71.08
2023-04-03T06:30:10.382Z,71.20
2023-04-03T06:32:40.126Z,70.74
2023-04-03T06:38:29.048Z,70.92
2023-04-03T06:41:00.786Z,70.50
2023-04-03T06:43:33.908Z,70.54
2023-04-03T06:46:03.871Z,70.36
2023-04-03T06:48:33.085Z,71.07
2023-04-03T06:51:01.229Z,70.59
2023-04-03T06:53:30.827Z,70.21
2023-04-03T06:55:59.307Z,70.21
2023-04-03T06:58:27.421Z,70.28
2023-04-03T07:00:56.895Z,70.72
2023-04-03T07:03:25.371Z,69.81
2023-04-03T07:05:54.618Z,70.15
2023-04-03T07:08:24.274Z,69.83
2023-04-03T07:10:54.814Z,69.57
2023-04-03T07:13:24.693Z,69.49
2023-04-03T07:15:57.966Z,69.55
2023-04-03T07:18:28.114Z,69.70
2023-04-03T07:20:59.061Z,68.33
2023-04-03T07:23:28.769Z,67.84
2023-04-03T07:25:59.805Z,66.65
2023-04-03T07:28:28.060Z,66.37
2023-04-03T07:31:03.425Z,65.06
2023-04-03T07:33:33.121Z,65.89
2023-04-03T07:36:05.354Z,65.16
2023-04-03T07:38:36.863Z,64.53
2023-04-03T07:41:07.058Z,64.29
2023-04-03T07:43:38.111Z,64.11
2023-04-03T07:46:10.678Z,64.08
2023-04-03T07:48:41.820Z,63.57
2023-04-03T07:51:10.182Z,63.23
2023-04-03T07:53:39.141Z,63.97
2023-04-03T07:56:10.479Z,62.95
2023-04-03T07:58:42.026Z,62.89
2023-04-03T08:01:10.246Z,62.89
2023-04-03T08:03:43.575Z,62.82
2023-04-03T08:06:16.169Z,62.65
2023-04-03T08:08:47.082Z,63.03
2023-04-03T08:11:19.843Z,61.61
2023-04-03T08:13:51.410Z,62.35
2023-04-03T08:16:23.439Z,61.75
2023-04-03T08:18:54.566Z,61.71
2023-04-03T08:21:24.000Z,61.63
2023-04-03T08:23:55.790Z,61.68
2023-04-03T08:26:27.674Z,60.61
2023-04-03T08:29:03.800Z,60.36
2023-04-03T08:31:32.361Z,60.23
2023-04-03T08:34:04.651Z,60.27
2023-04-03T08:36:36.287Z,59.94
2023-04-03T08:39:07.042Z,60.52
2023-04-03T08:41:41.256Z,58.88
2023-04-03T08:44:31.602Z,59.89
2023-04-03T08:47:12.397Z,59.11
2023-04-03T08:52:47.406Z,57.84
2023-04-03T08:55:26.163Z,56.93
2023-04-03T08:58:08.399Z,57.20
2023-04-03T09:00:52.429Z,57.68
2023-04-03T09:03:26.968Z,57.02
2023-04-03T09:06:12.682Z,56.96
2023-04-03T09:08:55.428Z,56.78
2023-04-03T09:11:42.193Z,57.25
2023-04-03T09:14:26.764Z,57.60
2023-04-03T09:17:02.715Z,56.41
2023-04-03T09:19:47.539Z,56.20
2023-04-03T09:22:32.741Z,56.90
2023-04-03T09:25:24.364Z,57.42
2023-04-03T09:28:11.333Z,57.04
2023-04-03T09:30:51.111Z,57.16
2023-04-03T09:33:45.834Z,56.52
2023-04-03T09:36:17.964Z,56.31
2023-04-03T09:38:49.581Z,56.65
2023-04-03T09:41:34.492Z,55.00
2023-04-03T09:44:03.597Z,55.17
2023-04-03T09:46:34.591Z,56.53
2023-04-03T09:49:09.508Z,54.92
2023-04-03T09:51:39.602Z,55.02
2023-04-03T09:54:43.416Z,54.13
2023-04-03T09:57:16.683Z,51.10
2023-04-03T09:59:49.821Z,52.09
2023-04-03T10:02:40.136Z,52.63
2023-04-03T10:05:33.676Z,53.36
2023-04-03T10:08:22.761Z,52.67
2023-04-03T10:11:07.266Z,52.77
2023-04-03T10:13:48.800Z,52.10
2023-04-03T10:16:24.275Z,52.51
2023-04-03T10:19:06.316Z,52.99
2023-04-03T10:21:43.906Z,52.70
2023-04-03T10:24:16.105Z,53.16
2023-04-03T10:26:53.560Z,51.75
2023-04-03T10:29:41.630Z,50.77
2023-04-03T10:32:27.128Z,51.14
2023-04-03T10:35:10.339Z,53.28
2023-04-03T10:38:01.999Z,52.70
2023-04-03T10:40:45.843Z,51.53
2023-04-03T10:43:22.872Z,51.63
2023-04-03T10:46:02.683Z,52.61
2023-04-03T10:49:16.627Z,52.19
2023-04-03T10:51:49.692Z,51.63
2023-04-03T10:54:25.491Z,50.46
2023-04-03T10:57:10.964Z,50.59
2023-04-03T10:59:44.230Z,49.29
2023-04-03T11:02:27.991Z,48.84
2023-04-03T11:05:03.645Z,48.45
2023-04-03T11:07:40.824Z,47.86
2023-04-03T11:10:17.887Z,46.84
2023-04-03T11:12:52.892Z,47.19
2023-04-03T11:15:24.248Z,46.55
2023-04-03T11:18:00.437Z,46.42
2023-04-03T11:20:34.574Z,45.74
2023-04-03T11:23:08.692Z,45.64
2023-04-03T11:25:41.867Z,44.22
2023-04-03T11:28:15.755Z,45.24
2023-04-03T11:30:51.929Z,44.71
2023-04-03T11:33:33.898Z,43.60
2023-04-03T11:36:24.992Z,43.68
2023-04-03T11:39:03.247Z,44.03
2023-04-03T11:41:44.849Z,44.58
2023-04-03T11:44:34.450Z,43.19
2023-04-03T11:47:04.164Z,44.01
2023-04-03T11:49:55.428Z,43.61
2023-04-03T11:52:58.750Z,43.15
2023-04-03T11:55:57.704Z,44.98
2023-04-03T11:58:28.572Z,43.64
2023-04-03T12:01:10.084Z,43.92
2023-04-03T12:04:09.217Z,43.35
2023-04-03T12:07:13.975Z,43.13
2023-04-03T12:10:32.130Z,42.31
2023-04-03T12:13:05.512Z,42.64
2023-04-03T12:15:55.421Z,44.47
2023-04-03T12:19:01.696Z,43.33
2023-04-03T12:22:16.236Z,43.85
2023-04-03T12:24:48.233Z,45.84
2023-04-03T12:27:27.496Z,43.79
2023-04-03T12:30:06.664Z,44.90
2023-04-03T12:33:02.332Z,42.79
2023-04-03T12:35:46.032Z,42.82
2023-04-03T12:38:53.841Z,42.71
2023-04-03T12:41:40.650Z,42.52
2023-04-03T12:44:34.625Z,41.91
2023-04-03T12:47:10.595Z,41.87
2023-04-03T12:49:43.059Z,41.82
2023-04-03T12:52:24.713Z,42.38
2023-04-03T12:54:54.510Z,43.11
2023-04-03T12:57:27.448Z,42.22
2023-04-03T12:59:57.992Z,41.96
2023-04-03T13:02:30.006Z,42.29
2023-04-03T13:05:02.413Z,41.91
2023-04-03T13:07:37.109Z,41.79
2023-04-03T13:10:17.615Z,41.88
2023-04-03T13:12:51.855Z,41.89
2023-04-03T13:15:33.245Z,42.23
2023-04-03T13:18:02.707Z,42.47
2023-04-03T13:20:34.431Z,42.16
2023-04-03T13:23:06.066Z,41.74
2023-04-03T13:25:37.759Z,41.91
2023-04-03T13:28:14.562Z,41.58
2023-04-03T13:30:59.962Z,41.75
2023-04-03T13:33:33.816Z,42.05
2023-04-03T13:36:09.467Z,41.63
2023-04-03T13:38:38.746Z,41.83
2023-04-03T13:41:27.303Z,41.46
2023-04-03T13:44:03.251Z,41.64
2023-04-03T13:46:38.564Z,41.38
2023-04-03T13:49:22.256Z,41.58
2023-04-03T13:52:03.935Z,41.49
2023-04-03T13:54:45.450Z,40.41
2023-04-03T13:57:20.331Z,41.02
2023-04-03T13:59:49.260Z,40.51
2023-04-03T14:02:21.684Z,41.04
2023-04-03T14:04:58.297Z,41.81
2023-04-03T14:07:30.480Z,42.39
2023-04-03T14:09:59.234Z,41.40
2023-04-03T14:12:32.490Z,41.92
2023-04-03T14:15:02.894Z,41.68
2023-04-03T14:17:34.262Z,40.16
2023-04-03T14:20:04.308Z,38.65
2023-04-03T14:22:39.271Z,35.52
2023-04-03T14:25:10.748Z,34.38
2023-04-03T14:27:41.256Z,33.89
2023-04-03T14:30:16.714Z,33.16
2023-04-03T14:32:45.009Z,32.80
2023-04-03T14:35:27.986Z,31.53
2023-04-03T14:37:58.995Z,30.64
2023-04-03T14:40:30.031Z,32.19
2023-04-03T14:43:01.864Z,33.36
2023-04-03T14:45:31.085Z,31.59
2023-04-03T14:48:01.150Z,30.98
2023-04-03T14:50:33.123Z,32.74
2023-04-03T14:53:02.096Z,32.11
2023-04-03T14:55:32.828Z,32.13
2023-04-03T14:58:03.268Z,32.77
2023-04-03T15:00:33.006Z,30.75
2023-04-03T15:03:01.044Z,30.53
2023-04-03T15:05:30.861Z,30.50
2023-04-03T15:08:05.296Z,30.74
2023-04-03T15:10:35.990Z,30.22
2023-04-03T15:13:09.252Z,28.72
2023-04-03T15:15:39.401Z,29.21
2023-04-03T15:18:09.248Z,28.99
2023-04-03T15:20:38.023Z,30.93
2023-04-03T15:23:09.060Z,29.40
2023-04-03T15:25:38.460Z,29.63
2023-04-03T15:28:08.530Z,30.29
2023-04-03T15:30:41.397Z,30.51
2023-04-03T15:33:12.036Z,28.97
2023-04-03T15:35:40.464Z,29.71
2023-04-03T15:38:11.999Z,32.19
2023-04-03T15:40:41.610Z,35.51
2023-04-03T15:43:11.233Z,37.00
2023-04-03T15:45:41.551Z,37.85
2023-04-03T15:48:10.911Z,39.73
2023-04-03T15:50:40.329Z,40.02
2023-04-03T15:53:10.742Z,40.54
2023-04-03T15:55:41.179Z,41.10
2023-04-03T15:58:09.776Z,40.44
2023-04-03T16:00:39.204Z,40.54
2023-04-03T16:03:11.115Z,40.71
2023-04-03T16:05:44.504Z,40.33
2023-04-03T16:08:14.964Z,41.12
2023-04-03T16:10:42.973Z,40.68
2023-04-03T16:13:13.304Z,40.88
2023-04-03T16:15:43.145Z,40.33
2023-04-03T16:18:15.002Z,40.95
2023-04-03T16:20:45.096Z,40.99
2023-04-03T16:23:15.884Z,40.59
2023-04-03T16:25:48.251Z,40.88
2023-04-03T16:28:16.734Z,40.73
2023-04-03T16:30:46.404Z,40.64
2023-04-03T16:33:16.364Z,41.46
2023-04-03T16:35:45.851Z,41.44
2023-04-03T16:38:16.110Z,40.78
2023-04-03T16:40:45.538Z,41.19
2023-04-03T16:43:16.982Z,40.57
2023-04-03T16:45:45.134Z,41.73
2023-04-03T16:48:18.096Z,40.96
2023-04-03T16:50:51.666Z,41.17
2023-04-03T16:53:23.259Z,41.36
2023-04-03T16:55:57.776Z,42.06
2023-04-03T16:58:27.855Z,41.07
2023-04-03T17:00:56.900Z,41.01
2023-04-03T17:03:27.400Z,41.31
2023-04-03T17:05:57.107Z,42.97
2023-04-03T17:08:27.737Z,42.87
2023-04-03T17:10:57.213Z,42.05
2023-04-03T17:13:31.947Z,42.54
2023-04-03T17:16:01.204Z,42.42
2023-04-03T17:18:31.609Z,42.05
2023-04-03T17:21:00.579Z,42.58
2023-04-03T17:23:31.297Z,43.56
2023-04-03T17:26:05.169Z,43.15
2023-04-03T17:28:37.349Z,43.86
2023-04-03T17:31:09.479Z,44.34
2023-04-03T17:33:38.669Z,43.68
2023-04-03T17:36:09.559Z,43.83
2023-04-03T17:38:44.143Z,43.42
2023-04-03T17:41:16.704Z,43.88
2023-04-03T17:43:48.169Z,43.91
2023-04-03T17:46:17.971Z,44.55
2023-04-03T17:48:47.881Z,45.43
2023-04-03T17:51:22.505Z,45.90
2023-04-03T17:54:14.764Z,46.48
2023-04-03T17:56:48.124Z,46.45
2023-04-03T17:59:17.106Z,46.45
2023-04-03T18:01:47.795Z,47.99
2023-04-03T18:04:17.074Z,47.22
2023-04-03T18:06:48.949Z,46.80
2023-04-03T18:09:24.981Z,47.53
2023-04-03T18:11:56.767Z,46.07
2023-04-03T18:14:31.820Z,46.62
2023-04-03T18:17:00.595Z,46.51
2023-04-03T18:19:30.074Z,46.31
2023-04-03T18:22:01.909Z,46.32
2023-04-03T18:24:38.861Z,46.26
2023-04-03T18:27:11.418Z,47.23
2023-04-03T18:29:42.321Z,47.10
2023-04-03T18:32:13.398Z,47.51
2023-04-03T18:34:42.693Z,47.13
2023-04-03T18:40:16.414Z,48.63
2023-04-03T18:42:48.796Z,48.41
2023-04-03T18:45:23.508Z,48.31
2023-04-03T18:47:53.428Z,48.74
2023-04-03T18:50:23.440Z,48.67
2023-04-03T18:52:54.669Z,49.25
2023-04-03T18:55:26.775Z,49.37
2023-04-03T18:57:55.045Z,50.15
2023-04-03T19:00:29.136Z,50.60
2023-04-03T19:02:59.620Z,50.34
2023-04-03T19:05:29.482Z,50.43
2023-04-03T19:07:59.296Z,50.01
2023-04-03T19:10:31.578Z,49.80
2023-04-03T19:13:01.919Z,49.74
2023-04-03T19:15:29.908Z,50.44
2023-04-03T19:18:01.553Z,50.18
2023-04-03T19:20:31.577Z,50.25
2023-04-03T19:23:00.134Z,50.31
2023-04-03T19:25:33.053Z,50.51
2023-04-03T19:28:02.259Z,50.19
2023-04-03T19:30:34.975Z,50.88
2023-04-03T19:33:05.998Z,50.22
2023-04-03T19:35:34.121Z,50.79
2023-04-03T19:38:04.279Z,50.89
2023-04-03T19:40:38.533Z,50.37
2023-04-03T19:43:06.978Z,50.72
2023-04-03T19:45:41.612Z,50.86
2023-04-03T19:48:11.661Z,50.86
2023-04-03T19:50:39.816Z,50.82
2023-04-03T19:53:10.670Z,51.21
2023-04-03T19:55:44.603Z,51.46
2023-04-03T19:58:13.059Z,51.42
2023-04-03T20:00:42.844Z,51.67
2023-04-03T20:03:11.253Z,51.37
2023-04-03T20:05:39.513Z,51.77
2023-04-03T20:08:08.019Z,51.49
2023-04-03T20:10:40.517Z,51.70
2023-04-03T20:13:14.320Z,51.99
2023-04-03T20:15:44.812Z,52.23
2023-04-03T20:18:18.354Z,52.56
2023-04-03T20:20:54.863Z,52.83
2023-04-03T20:23:23.906Z,52.82
2023-04-03T20:26:02.036Z,52.35
2023-04-03T20:28:39.084Z,52.91
2023-04-03T20:31:09.246Z,52.90
2023-04-03T20:33:38.862Z,53.08
2023-04-03T20:36:07.750Z,53.21
2023-04-03T20:38:37.399Z,53.54
2023-04-03T20:41:06.048Z,53.16
2023-04-03T20:43:35.368Z,53.57
2023-04-03T20:46:06.998Z,54.22
2023-04-03T20:48:35.986Z,54.14
2023-04-03T20:51:15.554Z,54.01
2023-04-03T20:53:48.064Z,54.04
2023-04-03T20:56:17.662Z,54.10
2023-04-03T20:58:47.945Z,54.79
2023-04-03T21:01:23.251Z,54.95
2023-04-03T21:03:57.291Z,54.42
2023-04-03T21:07:03.256Z,54.20
2023-04-03T21:10:10.111Z,54.30
2023-04-03T21:13:18.891Z,55.62
2023-04-03T21:15:47.787Z,54.77
2023-04-03T21:18:37.937Z,55.17
2023-04-03T21:21:07.129Z,55.37
2023-04-03T21:23:35.902Z,55.64
2023-04-03T21:26:07.270Z,55.96
2023-04-03T21:28:38.069Z,55.58
2023-04-03T21:31:09.628Z,55.80
2023-04-03T21:33:41.740Z,54.92
2023-04-03T21:36:11.138Z,55.79
2023-04-03T21:38:39.718Z,55.55
2023-04-03T21:41:08.007Z,55.56
2023-04-03T21:43:37.464Z,55.24
2023-04-03T21:46:06.388Z,55.40
2023-04-03T21:48:37.993Z,55.37
2023-04-03T21:51:12.980Z,55.62
2023-04-03T21:53:46.060Z,55.73
2023-04-03T21:56:19.608Z,55.92
2023-04-03T21:58:55.641Z,56.04
2023-04-03T22:01:23.993Z,56.65
2023-04-03T22:03:58.973Z,56.21
2023-04-03T22:06:34.989Z,56.28
2023-04-03T22:09:04.886Z,56.48
2023-04-03T22:11:33.986Z,57.24
2023-04-03T22:14:03.306Z,57.17
2023-04-03T22:16:37.032Z,57.10
2023-04-03T22:19:06.257Z,56.94
2023-04-03T22:21:42.813Z,56.89
2023-04-03T22:24:12.664Z,57.45
2023-04-03T22:26:45.324Z,58.24
2023-04-03T22:29:13.848Z,57.88
2023-04-03T22:31:44.836Z,58.64
2023-04-03T22:34:13.122Z,59.52
2023-04-03T22:36:43.901Z,58.34
2023-04-03T22:39:13.529Z,60.02
2023-04-03T22:41:47.636Z,60.59
2023-04-03T22:44:17.845Z,60.82
2023-04-03T22:46:47.547Z,60.98
2023-04-03T22:49:15.741Z,61.75
2023-04-03T22:51:49.565Z,61.98
2023-04-03T22:54:21.309Z,62.44
2023-04-03T22:56:50.708Z,63.57
2023-04-03T22:59:19.665Z,63.98
2023-04-03T23:01:56.515Z,62.77
2023-04-03T23:04:26.194Z,63.10
2023-04-03T23:06:56.342Z,63.97
2023-04-03T23:09:25.966Z,64.81
2023-04-03T23:11:55.874Z,65.56
2023-04-03T23:14:23.805Z,62.26
2023-04-03T23:16:55.457Z,62.11
2023-04-03T23:19:24.412Z,61.86
2023-04-03T23:21:53.413Z,63.65
2023-04-03T23:24:25.897Z,62.64
2023-04-03T23:26:54.271Z,62.89
2023-04-03T23:29:23.235Z,64.33
2023-04-03T23:31:55.176Z,65.03
2023-04-03T23:34:24.500Z,64.02
2023-04-03T23:36:52.827Z,65.24
2023-04-03T23:39:23.300Z,64.93
2023-04-03T23:41:54.416Z,65.14
2023-04-03T23:44:24.493Z,64.58
2023-04-03T23:46:52.414Z,65.45
2023-04-03T23:49:20.320Z,64.32
2023-04-03T23:51:53.829Z,63.20
2023-04-03T23:54:25.379Z,63.97
2023-04-03T23:56:55.218Z,62.90
2023-04-03T23:59:23.551Z,61.56
